sensor_id;sensor_type;location;lat;lon;timestamp;pressure;altitude;pressure_sealevel;temperature;humidity
56681;BME280;42558;52.388;13.390;2024-02-04T00:01:08;101270.84;;;6.87;100.00
56681;BME280;42558;52.388;13.390;2024-02-04T00:03:39;101269.77;;;6.81;100.00
56681;BME280;42558;52.388;13.390;2024-02-04T00:06:11;101274.75;;;6.83;100.00
56681;BME280;42558;52.388;13.390;2024-02-04T00:08:54;101270.27;;;6.76;100.00
56681;BME280;42558;52.388;13.390;2024-02-04T00:11:29;101273.55;;;6.75;100.00
56681;BME280;42558;52.388;13.390;2024-02-04T00:13:59;101280.59;;;6.71;100.00
56681;BME280;42558;52.388;13.390;2024-02-04T00:16:37;101283.60;;;6.68;100.00
56681;BME280;42558;52.388;13.390;2024-02-04T00:19:14;101288.52;;;6.64;100.00
56681;BME280;42558;52.388;13.390;2024-02-04T00:21:58;101283.88;;;6.56;100.00
56681;BME280;42558;52.388;13.390;2024-02-04T00:24:32;101283.05;;;6.58;100.00
56681;BME280;42558;52.388;13.390;2024-02-04T00:27:04;101284.26;;;6.53;100.00
56681;BME280;42558;52.388;13.390;2024-02-04T00:29:35;101284.11;;;6.45;100.00
56681;BME280;42558;52.388;13.390;2024-02-04T00:32:09;101273.60;;;6.40;100.00
56681;BME280;42558;52.388;13.390;2024-02-04T00:34:47;101271.17;;;6.35;100.00
56681;BME280;42558;52.388;13.390;2024-02-04T00:37:19;101274.48;;;6.31;100.00
56681;BME280;42558;52.388;13.390;2024-02-04T00:39:49;101283.94;;;6.32;100.00
56681;BME280;42558;52.388;13.390;2024-02-04T00:42:28;101280.81;;;6.27;100.00
56681;BME280;42558;52.388;13.390;2024-02-04T00:45:00;101281.25;;;6.24;100.00
56681;BME280;42558;52.388;13.390;2024-02-04T00:47:28;101281.21;;;6.23;100.00
56681;BME280;42558;52.388;13.390;2024-02-04T00:50:00;101285.02;;;6.18;100.00
56681;BME280;42558;52.388;13.390;2024-02-04T00:52:43;101279.48;;;6.11;100.00
56681;BME280;42558;52.388;13.390;2024-02-04T00:55:14;101275.27;;;6.06;100.00
56681;BME280;42558;52.388;13.390;2024-02-04T00:57:49;101276.29;;;5.97;100.00
56681;BME280;42558;52.388;13.390;2024-02-04T01:00:29;101276.83;;;5.97;100.00
56681;BME280;42558;52.388;13.390;2024-02-04T01:03:09;101275.36;;;5.91;100.00
56681;BME280;42558;52.388;13.390;2024-02-04T01:05:49;101268.69;;;6.03;100.00
56681;BME280;42558;52.388;13.390;2024-02-04T01:08:32;101269.23;;;6.13;100.00
56681;BME280;42558;52.388;13.390;2024-02-04T01:11:09;101266.33;;;6.05;100.00
56681;BME280;42558;52.388;13.390;2024-02-04T01:13:59;101262.95;;;5.99;100.00
56681;BME280;42558;52.388;13.390;2024-02-04T01:16:29;101260.88;;;5.91;100.00
56681;BME280;42558;52.388;13.390;2024-02-04T01:19:00;101257.73;;;5.87;100.00
56681;BME280;42558;52.388;13.390;2024-02-04T01:21:33;101256.40;;;5.81;100.00
56681;BME280;42558;52.388;13.390;2024-02-04T01:24:09;101251.42;;;5.70;100.00
56681;BME280;42558;52.388;13.390;2024-02-04T01:26:46;101249.65;;;5.61;100.00
56681;BME280;42558;52.388;13.390;2024-02-04T01:29:14;101251.84;;;5.50;100.00
56681;BME280;42558;52.388;13.390;2024-02-04T01:31:49;101260.58;;;5.47;100.00
56681;BME280;42558;52.388;13.390;2024-02-04T01:34:22;101257.67;;;5.44;100.00
56681;BME280;42558;52.388;13.390;2024-02-04T01:36:59;101255.78;;;5.37;100.00
56681;BME280;42558;52.388;13.390;2024-02-04T01:39:32;101267.49;;;5.25;100.00
56681;BME280;42558;52.388;13.390;2024-02-04T01:42:09;101267.95;;;5.15;100.00
56681;BME280;42558;52.388;13.390;2024-02-04T01:44:44;101264.72;;;5.09;100.00
56681;BME280;42558;52.388;13.390;2024-02-04T01:47:14;101262.01;;;5.03;100.00
56681;BME280;42558;52.388;13.390;2024-02-04T01:49:49;101265.34;;;5.07;100.00
56681;BME280;42558;52.388;13.390;2024-02-04T01:52:24;101271.77;;;5.03;100.00
56681;BME280;42558;52.388;13.390;2024-02-04T01:55:00;101271.02;;;5.02;100.00
56681;BME280;42558;52.388;13.390;2024-02-04T01:57:42;101278.52;;;5.10;100.00
56681;BME280;42558;52.388;13.390;2024-02-04T02:00:19;101280.28;;;5.10;100.00
56681;BME280;42558;52.388;13.390;2024-02-04T02:02:54;101273.80;;;5.09;100.00
56681;BME280;42558;52.388;13.390;2024-02-04T02:05:29;101270.61;;;5.08;100.00
56681;BME280;42558;52.388;13.390;2024-02-04T02:08:09;101269.67;;;5.07;100.00
56681;BME280;42558;52.388;13.390;2024-02-04T02:11:18;101271.31;;;5.08;100.00
56681;BME280;42558;52.388;13.390;2024-02-04T02:14:11;101268.47;;;4.99;100.00
56681;BME280;42558;52.388;13.390;2024-02-04T02:16:49;101263.31;;;4.97;100.00
56681;BME280;42558;52.388;13.390;2024-02-04T02:25:04;101255.41;;;4.92;100.00
56681;BME280;42558;52.388;13.390;2024-02-04T02:27:49;101241.39;;;4.90;100.00
56681;BME280;42558;52.388;13.390;2024-02-04T02:30:26;101245.02;;;4.81;100.00
56681;BME280;42558;52.388;13.390;2024-02-04T02:33:05;101244.14;;;4.85;100.00
56681;BME280;42558;52.388;13.390;2024-02-04T02:35:58;101251.23;;;4.84;100.00
56681;BME280;42558;52.388;13.390;2024-02-04T02:39:16;101245.93;;;4.83;100.00
56681;BME280;42558;52.388;13.390;2024-02-04T02:42:10;101238.21;;;4.77;100.00
56681;BME280;42558;52.388;13.390;2024-02-04T02:44:44;101236.67;;;4.74;100.00
56681;BME280;42558;52.388;13.390;2024-02-04T02:47:24;101241.23;;;4.70;100.00
56681;BME280;42558;52.388;13.390;2024-02-04T02:50:21;101233.31;;;4.73;100.00
56681;BME280;42558;52.388;13.390;2024-02-04T02:52:56;101241.35;;;4.77;100.00
56681;BME280;42558;52.388;13.390;2024-02-04T02:55:27;101247.66;;;4.82;100.00
56681;BME280;42558;52.388;13.390;2024-02-04T02:57:58;101253.36;;;4.77;100.00
56681;BME280;42558;52.388;13.390;2024-02-04T03:00:30;101257.56;;;4.78;100.00
56681;BME280;42558;52.388;13.390;2024-02-04T03:03:01;101258.86;;;4.79;100.00
56681;BME280;42558;52.388;13.390;2024-02-04T03:05:36;101258.19;;;4.80;100.00
56681;BME280;42558;52.388;13.390;2024-02-04T03:08:10;101252.02;;;4.78;100.00
56681;BME280;42558;52.388;13.390;2024-02-04T03:10:45;101257.94;;;4.78;100.00
56681;BME280;42558;52.388;13.390;2024-02-04T03:13:15;101257.30;;;4.83;100.00
56681;BME280;42558;52.388;13.390;2024-02-04T03:15:50;101256.41;;;4.83;100.00
56681;BME280;42558;52.388;13.390;2024-02-04T03:18:20;101258.77;;;4.81;100.00
56681;BME280;42558;52.388;13.390;2024-02-04T03:20:59;101254.84;;;4.87;100.00
56681;BME280;42558;52.388;13.390;2024-02-04T03:23:30;101253.00;;;4.97;100.00
56681;BME280;42558;52.388;13.390;2024-02-04T03:26:07;101248.02;;;5.02;100.00
56681;BME280;42558;52.388;13.390;2024-02-04T03:28:40;101253.11;;;5.11;100.00
56681;BME280;42558;52.388;13.390;2024-02-04T03:31:10;101249.30;;;5.11;100.00
56681;BME280;42558;52.388;13.390;2024-02-04T03:33:54;101246.98;;;5.14;100.00
56681;BME280;42558;52.388;13.390;2024-02-04T03:36:31;101240.92;;;5.15;100.00
56681;BME280;42558;52.388;13.390;2024-02-04T03:39:05;101242.14;;;5.19;100.00
56681;BME280;42558;52.388;13.390;2024-02-04T03:41:42;101231.63;;;5.26;100.00
56681;BME280;42558;52.388;13.390;2024-02-04T03:44:14;101225.92;;;5.28;100.00
56681;BME280;42558;52.388;13.390;2024-02-04T03:46:50;101221.58;;;5.31;100.00
56681;BME280;42558;52.388;13.390;2024-02-04T03:49:21;101217.96;;;5.29;100.00
56681;BME280;42558;52.388;13.390;2024-02-04T03:51:52;101221.21;;;5.31;100.00
56681;BME280;42558;52.388;13.390;2024-02-04T03:54:22;101215.64;;;5.27;100.00
56681;BME280;42558;52.388;13.390;2024-02-04T03:56:54;101212.49;;;5.27;100.00
56681;BME280;42558;52.388;13.390;2024-02-04T03:59:24;101211.24;;;5.27;100.00
56681;BME280;42558;52.388;13.390;2024-02-04T04:01:53;101213.73;;;5.28;100.00
56681;BME280;42558;52.388;13.390;2024-02-04T04:04:26;101211.00;;;5.25;100.00
56681;BME280;42558;52.388;13.390;2024-02-04T04:07:01;101206.88;;;5.17;100.00
56681;BME280;42558;52.388;13.390;2024-02-04T04:09:43;101203.50;;;5.12;100.00
56681;BME280;42558;52.388;13.390;2024-02-04T04:12:14;101193.21;;;5.12;100.00
56681;BME280;42558;52.388;13.390;2024-02-04T04:14:42;101193.65;;;5.06;100.00
56681;BME280;42558;52.388;13.390;2024-02-04T04:17:10;101200.80;;;4.98;100.00
56681;BME280;42558;52.388;13.390;2024-02-04T04:19:40;101196.10;;;4.94;100.00
56681;BME280;42558;52.388;13.390;2024-02-04T04:22:14;101185.81;;;4.94;100.00
56681;BME280;42558;52.388;13.390;2024-02-04T04:24:50;101177.11;;;4.86;100.00
56681;BME280;42558;52.388;13.390;2024-02-04T04:27:20;101178.73;;;4.79;100.00
56681;BME280;42558;52.388;13.390;2024-02-04T04:29:50;101174.13;;;4.81;100.00
56681;BME280;42558;52.388;13.390;2024-02-04T04:32:20;101172.95;;;4.74;100.00
56681;BME280;42558;52.388;13.390;2024-02-04T04:34:52;101174.06;;;4.68;100.00
56681;BME280;42558;52.388;13.390;2024-02-04T04:37:22;101171.74;;;4.63;100.00
56681;BME280;42558;52.388;13.390;2024-02-04T04:39:52;101172.27;;;4.55;100.00
56681;BME280;42558;52.388;13.390;2024-02-04T04:42:23;101175.05;;;4.55;100.00
56681;BME280;42558;52.388;13.390;2024-02-04T04:44:59;101175.55;;;4.50;100.00
56681;BME280;42558;52.388;13.390;2024-02-04T04:47:35;101176.87;;;4.49;100.00
56681;BME280;42558;52.388;13.390;2024-02-04T04:50:08;101173.58;;;4.41;100.00
56681;BME280;42558;52.388;13.390;2024-02-04T04:52:38;101175.36;;;4.46;100.00
56681;BME280;42558;52.388;13.390;2024-02-04T04:55:11;101168.98;;;4.44;100.00
56681;BME280;42558;52.388;13.390;2024-02-04T04:57:47;101166.63;;;4.34;100.00
56681;BME280;42558;52.388;13.390;2024-02-04T05:00:21;101163.95;;;4.41;100.00
56681;BME280;42558;52.388;13.390;2024-02-04T05:02:57;101158.55;;;4.36;100.00
56681;BME280;42558;52.388;13.390;2024-02-04T05:05:34;101155.98;;;4.37;100.00
56681;BME280;42558;52.388;13.390;2024-02-04T05:08:23;101141.79;;;4.35;100.00
56681;BME280;42558;52.388;13.390;2024-02-04T05:10:55;101146.36;;;4.25;100.00
56681;BME280;42558;52.388;13.390;2024-02-04T05:13:26;101143.28;;;4.18;100.00
56681;BME280;42558;52.388;13.390;2024-02-04T05:15:58;101139.08;;;4.21;100.00
56681;BME280;42558;52.388;13.390;2024-02-04T05:18:40;101136.15;;;4.14;100.00
56681;BME280;42558;52.388;13.390;2024-02-04T05:21:11;101137.51;;;4.10;100.00
56681;BME280;42558;52.388;13.390;2024-02-04T05:23:45;101138.02;;;4.06;100.00
56681;BME280;42558;52.388;13.390;2024-02-04T05:26:19;101140.08;;;3.97;100.00
56681;BME280;42558;52.388;13.390;2024-02-04T05:28:50;101144.35;;;3.92;100.00
56681;BME280;42558;52.388;13.390;2024-02-04T05:31:20;101135.36;;;4.04;100.00
56681;BME280;42558;52.388;13.390;2024-02-04T05:33:53;101137.70;;;4.02;100.00
56681;BME280;42558;52.388;13.390;2024-02-04T05:36:30;101136.71;;;4.00;100.00
56681;BME280;42558;52.388;13.390;2024-02-04T05:39:20;101123.36;;;4.08;100.00
56681;BME280;42558;52.388;13.390;2024-02-04T05:41:50;101120.82;;;4.06;100.00
56681;BME280;42558;52.388;13.390;2024-02-04T05:44:20;101121.38;;;4.03;100.00
56681;BME280;42558;52.388;13.390;2024-02-04T05:46:50;101121.20;;;4.11;100.00
56681;BME280;42558;52.388;13.390;2024-02-04T05:49:21;101122.52;;;4.01;100.00
56681;BME280;42558;52.388;13.390;2024-02-04T05:51:51;101129.67;;;3.94;100.00
56681;BME280;42558;52.388;13.390;2024-02-04T05:54:21;101131.34;;;3.89;100.00
56681;BME280;42558;52.388;13.390;2024-02-04T05:56:51;101136.64;;;3.98;100.00
56681;BME280;42558;52.388;13.390;2024-02-04T05:59:20;101135.90;;;4.09;100.00
56681;BME280;42558;52.388;13.390;2024-02-04T06:01:49;101134.61;;;4.19;100.00
56681;BME280;42558;52.388;13.390;2024-02-04T06:04:17;101131.11;;;4.30;100.00
56681;BME280;42558;52.388;13.390;2024-02-04T06:06:58;101132.04;;;4.39;100.00
56681;BME280;42558;52.388;13.390;2024-02-04T06:09:31;101133.03;;;4.42;100.00
56681;BME280;42558;52.388;13.390;2024-02-04T06:12:20;101129.88;;;4.37;100.00
56681;BME280;42558;52.388;13.390;2024-02-04T06:14:51;101133.81;;;4.40;100.00
56681;BME280;42558;52.388;13.390;2024-02-04T06:17:27;101129.53;;;4.49;100.00
56681;BME280;42558;52.388;13.390;2024-02-04T06:19:59;101133.39;;;4.49;100.00
56681;BME280;42558;52.388;13.390;2024-02-04T06:22:48;101126.76;;;4.57;100.00
56681;BME280;42558;52.388;13.390;2024-02-04T06:25:19;101126.69;;;4.60;100.00
56681;BME280;42558;52.388;13.390;2024-02-04T06:27:51;101133.58;;;4.54;100.00
56681;BME280;42558;52.388;13.390;2024-02-04T06:30:23;101122.44;;;4.62;100.00
56681;BME280;42558;52.388;13.390;2024-02-04T06:32:57;101122.80;;;4.62;100.00
56681;BME280;42558;52.388;13.390;2024-02-04T06:35:49;101125.83;;;4.64;100.00
56681;BME280;42558;52.388;13.390;2024-02-04T06:38:19;101124.23;;;4.67;100.00
56681;BME280;42558;52.388;13.390;2024-02-04T06:40:52;101122.14;;;4.63;100.00
56681;BME280;42558;52.388;13.390;2024-02-04T06:43:28;101119.52;;;4.59;100.00
56681;BME280;42558;52.388;13.390;2024-02-04T06:46:11;101124.41;;;4.72;100.00
56681;BME280;42558;52.388;13.390;2024-02-04T06:48:49;101131.73;;;4.72;100.00
56681;BME280;42558;52.388;13.390;2024-02-04T06:51:17;101134.04;;;4.64;100.00
56681;BME280;42558;52.388;13.390;2024-02-04T06:53:46;101135.90;;;4.76;100.00
56681;BME280;42558;52.388;13.390;2024-02-04T06:56:14;101134.81;;;4.79;100.00
56681;BME280;42558;52.388;13.390;2024-02-04T06:58:44;101132.21;;;4.75;100.00
56681;BME280;42558;52.388;13.390;2024-02-04T07:01:11;101132.33;;;4.82;100.00
56681;BME280;42558;52.388;13.390;2024-02-04T07:03:40;101131.95;;;4.85;100.00
56681;BME280;42558;52.388;13.390;2024-02-04T07:06:11;101127.39;;;4.84;100.00
56681;BME280;42558;52.388;13.390;2024-02-04T07:08:48;101124.38;;;4.95;100.00
56681;BME280;42558;52.388;13.390;2024-02-04T07:11:19;101113.24;;;4.92;100.00
56681;BME280;42558;52.388;13.390;2024-02-04T07:13:51;101116.84;;;4.86;100.00
56681;BME280;42558;52.388;13.390;2024-02-04T07:16:29;101119.00;;;5.00;100.00
56681;BME280;42558;52.388;13.390;2024-02-04T07:19:01;101116.20;;;5.04;100.00
56681;BME280;42558;52.388;13.390;2024-02-04T07:21:44;101119.57;;;5.14;100.00
56681;BME280;42558;52.388;13.390;2024-02-04T07:24:19;101113.14;;;5.10;100.00
56681;BME280;42558;52.388;13.390;2024-02-04T07:26:51;101107.27;;;5.15;100.00
56681;BME280;42558;52.388;13.390;2024-02-04T07:29:31;101111.87;;;5.17;100.00
56681;BME280;42558;52.388;13.390;2024-02-04T07:32:08;101109.08;;;5.26;100.00
56681;BME280;42558;52.388;13.390;2024-02-04T07:34:45;101107.22;;;5.28;100.00
56681;BME280;42558;52.388;13.390;2024-02-04T07:37:17;101108.58;;;5.31;100.00
56681;BME280;42558;52.388;13.390;2024-02-04T07:39:55;101111.74;;;5.31;100.00
56681;BME280;42558;52.388;13.390;2024-02-04T07:42:33;101112.48;;;5.33;100.00
56681;BME280;42558;52.388;13.390;2024-02-04T07:45:11;101109.62;;;5.31;100.00
56681;BME280;42558;52.388;13.390;2024-02-04T07:47:44;101101.20;;;5.38;100.00
56681;BME280;42558;52.388;13.390;2024-02-04T07:50:15;101093.48;;;5.37;100.00
56681;BME280;42558;52.388;13.390;2024-02-04T07:52:46;101083.70;;;5.45;100.00
56681;BME280;42558;52.388;13.390;2024-02-04T07:55:16;101075.27;;;5.53;100.00
56681;BME280;42558;52.388;13.390;2024-02-04T07:57:46;101069.18;;;5.53;100.00
56681;BME280;42558;52.388;13.390;2024-02-04T08:00:19;101065.61;;;5.55;100.00
56681;BME280;42558;52.388;13.390;2024-02-04T08:02:49;101061.45;;;5.56;100.00
56681;BME280;42558;52.388;13.390;2024-02-04T08:05:19;101061.32;;;5.57;100.00
56681;BME280;42558;52.388;13.390;2024-02-04T08:07:50;101069.87;;;5.57;100.00
56681;BME280;42558;52.388;13.390;2024-02-04T08:10:30;101074.40;;;5.61;100.00
56681;BME280;42558;52.388;13.390;2024-02-04T08:13:09;101074.98;;;5.72;100.00
56681;BME280;42558;52.388;13.390;2024-02-04T08:15:46;101073.86;;;5.80;100.00
56681;BME280;42558;52.388;13.390;2024-02-04T08:18:17;101072.54;;;5.82;100.00
56681;BME280;42558;52.388;13.390;2024-02-04T08:20:50;101063.96;;;5.86;100.00
56681;BME280;42558;52.388;13.390;2024-02-04T08:23:18;101062.52;;;5.89;100.00
56681;BME280;42558;52.388;13.390;2024-02-04T08:26:02;101065.53;;;5.98;100.00
56681;BME280;42558;52.388;13.390;2024-02-04T08:28:46;101066.73;;;6.02;100.00
56681;BME280;42558;52.388;13.390;2024-02-04T08:31:19;101065.28;;;6.01;100.00
56681;BME280;42558;52.388;13.390;2024-02-04T08:33:50;101059.95;;;6.03;100.00
56681;BME280;42558;52.388;13.390;2024-02-04T08:36:36;101045.64;;;6.08;100.00
56681;BME280;42558;52.388;13.390;2024-02-04T08:39:12;101053.48;;;6.08;100.00
56681;BME280;42558;52.388;13.390;2024-02-04T08:41:51;101056.54;;;6.05;100.00
56681;BME280;42558;52.388;13.390;2024-02-04T08:44:28;101056.02;;;6.10;100.00
56681;BME280;42558;52.388;13.390;2024-02-04T08:47:12;101048.27;;;6.13;100.00
56681;BME280;42558;52.388;13.390;2024-02-04T08:49:52;101043.63;;;6.15;100.00
56681;BME280;42558;52.388;13.390;2024-02-04T08:52:24;101038.89;;;6.19;100.00
56681;BME280;42558;52.388;13.390;2024-02-04T08:54:52;101038.39;;;6.25;100.00
56681;BME280;42558;52.388;13.390;2024-02-04T08:57:21;101037.02;;;6.25;100.00
56681;BME280;42558;52.388;13.390;2024-02-04T08:59:49;101044.55;;;6.26;100.00
56681;BME280;42558;52.388;13.390;2024-02-04T09:02:18;101043.21;;;6.28;100.00
56681;BME280;42558;52.388;13.390;2024-02-04T09:04:46;101037.76;;;6.32;100.00
56681;BME280;42558;52.388;13.390;2024-02-04T09:07:15;101041.22;;;6.36;100.00
56681;BME280;42558;52.388;13.390;2024-02-04T09:09:53;101030.73;;;6.41;100.00
56681;BME280;42558;52.388;13.390;2024-02-04T09:12:24;101026.48;;;6.44;100.00
56681;BME280;42558;52.388;13.390;2024-02-04T09:15:07;101030.61;;;6.48;100.00
56681;BME280;42558;52.388;13.390;2024-02-04T09:17:45;101023.60;;;6.47;100.00
56681;BME280;42558;52.388;13.390;2024-02-04T09:20:18;101017.70;;;6.48;100.00
56681;BME280;42558;52.388;13.390;2024-02-04T09:22:58;101016.70;;;6.54;100.00
56681;BME280;42558;52.388;13.390;2024-02-04T09:25:35;101010.98;;;6.55;100.00
56681;BME280;42558;52.388;13.390;2024-02-04T09:28:09;101006.23;;;6.60;100.00
56681;BME280;42558;52.388;13.390;2024-02-04T09:30:52;101007.73;;;6.67;100.00
56681;BME280;42558;52.388;13.390;2024-02-04T09:33:22;101009.46;;;6.72;100.00
56681;BME280;42558;52.388;13.390;2024-02-04T09:35:54;101006.25;;;6.76;100.00
56681;BME280;42558;52.388;13.390;2024-02-04T09:38:32;101010.34;;;6.77;100.00
56681;BME280;42558;52.388;13.390;2024-02-04T09:41:12;101002.48;;;6.84;100.00
56681;BME280;42558;52.388;13.390;2024-02-04T09:43:50;101004.29;;;7.02;100.00
56681;BME280;42558;52.388;13.390;2024-02-04T09:46:22;101006.48;;;7.16;100.00
56681;BME280;42558;52.388;13.390;2024-02-04T09:49:17;101009.45;;;7.27;100.00
56681;BME280;42558;52.388;13.390;2024-02-04T09:51:54;101003.03;;;7.28;100.00
56681;BME280;42558;52.388;13.390;2024-02-04T09:54:50;101005.23;;;7.38;100.00
56681;BME280;42558;52.388;13.390;2024-02-04T09:57:25;100992.36;;;7.28;100.00
56681;BME280;42558;52.388;13.390;2024-02-04T09:59:58;100996.07;;;7.30;100.00
56681;BME280;42558;52.388;13.390;2024-02-04T10:02:53;100986.54;;;7.38;100.00
56681;BME280;42558;52.388;13.390;2024-02-04T10:05:38;100985.79;;;7.43;100.00
56681;BME280;42558;52.388;13.390;2024-02-04T10:08:16;100988.93;;;7.36;100.00
56681;BME280;42558;52.388;13.390;2024-02-04T10:10:53;100985.65;;;7.32;100.00
56681;BME280;42558;52.388;13.390;2024-02-04T10:13:28;100985.84;;;7.32;100.00
56681;BME280;42558;52.388;13.390;2024-02-04T10:16:05;100987.96;;;7.39;100.00
56681;BME280;42558;52.388;13.390;2024-02-04T10:18:52;100978.39;;;7.53;100.00
56681;BME280;42558;52.388;13.390;2024-02-04T10:21:30;100980.23;;;7.62;100.00
56681;BME280;42558;52.388;13.390;2024-02-04T10:24:18;100972.34;;;7.61;100.00
56681;BME280;42558;52.388;13.390;2024-02-04T10:26:55;100978.62;;;7.72;100.00
56681;BME280;42558;52.388;13.390;2024-02-04T10:29:29;100974.27;;;7.61;99.80
56681;BME280;42558;52.388;13.390;2024-02-04T10:32:07;100976.94;;;7.57;100.00
56681;BME280;42558;52.388;13.390;2024-02-04T10:34:52;100964.45;;;7.55;99.98
56681;BME280;42558;52.388;13.390;2024-02-04T10:37:24;100955.61;;;7.52;100.00
56681;BME280;42558;52.388;13.390;2024-02-04T10:40:10;100956.44;;;7.62;100.00
56681;BME280;42558;52.388;13.390;2024-02-04T10:42:45;100953.70;;;7.58;100.00
56681;BME280;42558;52.388;13.390;2024-02-04T10:45:18;100947.70;;;7.56;100.00
56681;BME280;42558;52.388;13.390;2024-02-04T10:48:00;100935.98;;;7.50;99.78
56681;BME280;42558;52.388;13.390;2024-02-04T10:50:38;100937.48;;;7.60;100.00
56681;BME280;42558;52.388;13.390;2024-02-04T10:53:17;100938.11;;;7.51;100.00
56681;BME280;42558;52.388;13.390;2024-02-04T10:55:58;100942.33;;;7.51;100.00
56681;BME280;42558;52.388;13.390;2024-02-04T10:58:47;100941.58;;;7.44;99.14
56681;BME280;42558;52.388;13.390;2024-02-04T11:01:27;100934.27;;;7.52;99.84
56681;BME280;42558;52.388;13.390;2024-02-04T11:04:11;100926.38;;;7.51;99.65
56681;BME280;42558;52.388;13.390;2024-02-04T11:07:06;100929.63;;;7.55;99.70
56681;BME280;42558;52.388;13.390;2024-02-04T11:09:48;100925.13;;;7.56;99.73
56681;BME280;42558;52.388;13.390;2024-02-04T11:12:35;100919.92;;;7.57;99.74
56681;BME280;42558;52.388;13.390;2024-02-04T11:15:35;100915.44;;;7.60;99.10
56681;BME280;42558;52.388;13.390;2024-02-04T11:27:26;100913.32;;;7.59;97.82
56681;BME280;42558;52.388;13.390;2024-02-04T11:30:08;100900.37;;;7.59;96.77
56681;BME280;42558;52.388;13.390;2024-02-04T11:32:52;100898.17;;;7.62;96.92
56681;BME280;42558;52.388;13.390;2024-02-04T11:35:27;100898.06;;;7.65;98.53
56681;BME280;42558;52.388;13.390;2024-02-04T11:38:08;100888.02;;;7.68;97.90
56681;BME280;42558;52.388;13.390;2024-02-04T11:40:48;100886.42;;;7.74;97.30
56681;BME280;42558;52.388;13.390;2024-02-04T11:43:25;100881.76;;;7.76;97.00
56681;BME280;42558;52.388;13.390;2024-02-04T11:46:03;100880.63;;;7.79;96.47
56681;BME280;42558;52.388;13.390;2024-02-04T11:48:42;100873.29;;;7.80;96.25
56681;BME280;42558;52.388;13.390;2024-02-04T11:51:17;100863.58;;;7.77;95.34
56681;BME280;42558;52.388;13.390;2024-02-04T11:54:01;100846.49;;;7.79;95.66
56681;BME280;42558;52.388;13.390;2024-02-04T11:56:42;100843.59;;;7.75;95.46
56681;BME280;42558;52.388;13.390;2024-02-04T11:59:42;100839.40;;;7.75;95.57
56681;BME280;42558;52.388;13.390;2024-02-04T12:02:21;100840.95;;;7.81;95.16
56681;BME280;42558;52.388;13.390;2024-02-04T12:05:00;100844.24;;;7.80;94.33
56681;BME280;42558;52.388;13.390;2024-02-04T12:07:41;100839.51;;;7.73;93.95
56681;BME280;42558;52.388;13.390;2024-02-04T12:10:18;100845.75;;;7.71;93.87
56681;BME280;42558;52.388;13.390;2024-02-04T12:12:53;100848.85;;;7.69;93.31
56681;BME280;42558;52.388;13.390;2024-02-04T12:15:28;100848.30;;;7.68;92.16
56681;BME280;42558;52.388;13.390;2024-02-04T12:18:15;100841.59;;;7.66;92.61
56681;BME280;42558;52.388;13.390;2024-02-04T12:21:04;100853.33;;;7.67;92.64
56681;BME280;42558;52.388;13.390;2024-02-04T12:23:36;100848.58;;;7.66;93.04
56681;BME280;42558;52.388;13.390;2024-02-04T12:26:07;100843.06;;;7.62;93.05
56681;BME280;42558;52.388;13.390;2024-02-04T12:28:37;100847.20;;;7.59;92.63
56681;BME280;42558;52.388;13.390;2024-02-04T12:31:20;100849.08;;;7.65;92.60
56681;BME280;42558;52.388;13.390;2024-02-04T12:33:56;100847.66;;;7.64;92.52
56681;BME280;42558;52.388;13.390;2024-02-04T12:36:33;100854.01;;;7.66;92.81
56681;BME280;42558;52.388;13.390;2024-02-04T12:39:03;100845.58;;;7.58;92.85
56681;BME280;42558;52.388;13.390;2024-02-04T12:41:34;100854.14;;;7.57;92.16
56681;BME280;42558;52.388;13.390;2024-02-04T12:44:05;100846.80;;;7.57;91.18
56681;BME280;42558;52.388;13.390;2024-02-04T12:46:35;100854.44;;;7.56;90.67
56681;BME280;42558;52.388;13.390;2024-02-04T12:49:06;100845.91;;;7.57;90.85
56681;BME280;42558;52.388;13.390;2024-02-04T12:51:36;100844.66;;;7.56;90.29
56681;BME280;42558;52.388;13.390;2024-02-04T12:54:14;100838.39;;;7.57;89.73
56681;BME280;42558;52.388;13.390;2024-02-04T12:56:52;100833.02;;;7.59;91.04
56681;BME280;42558;52.388;13.390;2024-02-04T12:59:32;100832.55;;;7.55;91.92
56681;BME280;42558;52.388;13.390;2024-02-04T13:02:08;100831.09;;;7.53;90.96
56681;BME280;42558;52.388;13.390;2024-02-04T13:04:45;100831.52;;;7.55;90.42
56681;BME280;42558;52.388;13.390;2024-02-04T13:07:20;100839.11;;;7.58;90.65
56681;BME280;42558;52.388;13.390;2024-02-04T13:10:08;100837.90;;;7.58;90.35
56681;BME280;42558;52.388;13.390;2024-02-04T13:12:43;100841.21;;;7.58;90.69
56681;BME280;42558;52.388;13.390;2024-02-04T13:15:19;100843.65;;;7.57;90.80
56681;BME280;42558;52.388;13.390;2024-02-04T13:17:54;100840.91;;;7.60;91.30
56681;BME280;42558;52.388;13.390;2024-02-04T13:20:43;100841.42;;;7.60;90.26
56681;BME280;42558;52.388;13.390;2024-02-04T13:23:21;100841.94;;;7.59;90.55
56681;BME280;42558;52.388;13.390;2024-02-04T13:25:51;100837.91;;;7.59;91.02
56681;BME280;42558;52.388;13.390;2024-02-04T13:28:31;100838.07;;;7.59;90.86
56681;BME280;42558;52.388;13.390;2024-02-04T13:31:09;100836.93;;;7.55;91.48
56681;BME280;42558;52.388;13.390;2024-02-04T13:33:44;100840.11;;;7.56;91.08
56681;BME280;42558;52.388;13.390;2024-02-04T13:36:32;100837.89;;;7.52;92.02
56681;BME280;42558;52.388;13.390;2024-02-04T13:39:01;100838.55;;;7.50;91.93
56681;BME280;42558;52.388;13.390;2024-02-04T13:41:32;100835.56;;;7.50;92.01
56681;BME280;42558;52.388;13.390;2024-02-04T13:44:07;100834.52;;;7.50;91.99